Time;durP1;ratioP1;P1;durP2;ratioP2;P2;SDS_P1;SDS_P2;PMS_P1;PMS_P2;Temp;Humidity;BMP_temperature;BMP_pressure;BME280_temperature;BME280_humidity;BME280_pressure;Samples;Min_cycle;Max_cycle;Signal;HPM_P1;HPM_P2
2022/07/12 00:01:20;;;;;;;2.65;1.85;;;;;;;;;;4999963;28;20026;-85
2022/07/12 00:03:46;;;;;;;1.60;1.50;;;;;;;;;;4981976;28;20037;-86
2022/07/12 00:06:19;;;;;;;1.70;1.60;;;;;;;;;;5010358;28;20029;-86
2022/07/12 00:08:45;;;;;;;5.38;1.90;;;;;;;;;;4981003;28;20616;-85
2022/07/12 00:11:11;;;;;;;1.80;1.60;;;;;;;;;;4987804;28;20026;-86
2022/07/12 00:13:36;;;;;;;1.83;1.67;;;;;;;;;;5009530;28;20032;-87
2022/07/12 00:16:02;;;;;;;1.67;1.40;;;;;;;;;;4980863;28;20026;-89
2022/07/12 00:18:27;;;;;;;1.95;1.50;;;;;;;;;;4979407;28;20538;-86
2022/07/12 00:20:53;;;;;;;2.05;1.85;;;;;;;;;;4995045;28;20040;-86
2022/07/12 00:23:20;;;;;;;2.83;1.80;;;;;;;;;;5008181;28;20201;-85
2022/07/12 00:25:46;;;;;;;1.80;1.70;;;;;;;;;;4979571;28;20022;-85
2022/07/12 00:28:12;;;;;;;2.00;1.75;;;;;;;;;;4984743;28;20034;-85
2022/07/12 00:30:37;;;;;;;2.15;1.58;;;;;;;;;;4982901;28;20026;-89
2022/07/12 00:33:02;;;;;;;2.38;1.60;;;;;;;;;;4979916;28;20101;-87
2022/07/12 00:35:28;;;;;;;1.63;1.52;;;;;;;;;;4979935;28;20036;-86
2022/07/12 00:37:53;;;;;;;2.83;1.55;;;;;;;;;;4984000;28;20018;-86
2022/07/12 00:40:19;;;;;;;2.38;1.67;;;;;;;;;;4991781;28;20037;-85
2022/07/12 00:42:47;;;;;;;2.30;1.73;;;;;;;;;;4988258;28;20275;-86
2022/07/12 00:45:22;;;;;;;;;;;;;;;;;;;;;
2022/07/12 00:47:50;;;;;;;3.50;1.67;;;;;;;;;;5018768;23;20176;-80
2022/07/12 00:50:20;;;;;;;2.35;2.10;;;;;;;;;;5005712;28;20033;-80
2022/07/12 00:52:48;;;;;;;2.00;1.70;;;;;;;;;;5002517;28;20030;-80
2022/07/12 00:55:15;;;;;;;2.03;1.70;;;;;;;;;;5007047;28;20335;-80
2022/07/12 00:57:45;;;;;;;1.98;1.73;;;;;;;;;;5014815;28;20108;-80
2022/07/12 01:00:14;;;;;;;2.28;1.90;;;;;;;;;;5009419;28;20030;-79
2022/07/12 01:02:40;;;;;;;2.03;1.58;;;;;;;;;;5010265;28;20049;-80
2022/07/12 01:05:07;;;;;;;2.03;1.60;;;;;;;;;;5015924;28;20061;-80
2022/07/12 01:07:34;;;;;;;1.55;1.40;;;;;;;;;;5011707;28;20510;-79
2022/07/12 01:10:00;;;;;;;2.08;1.50;;;;;;;;;;5009815;28;20029;-80
2022/07/12 01:12:26;;;;;;;1.88;1.75;;;;;;;;;;5008338;28;20049;-79
2022/07/12 01:14:52;;;;;;;1.60;1.50;;;;;;;;;;5001962;28;20034;-79
2022/07/12 01:17:21;;;;;;;1.50;1.40;;;;;;;;;;5010139;28;20026;-79
2022/07/12 01:19:52;;;;;;;1.60;1.50;;;;;;;;;;5012486;28;20038;-80
2022/07/12 01:22:18;;;;;;;1.95;1.65;;;;;;;;;;5012423;28;20022;-80
2022/07/12 01:24:45;;;;;;;5.68;1.80;;;;;;;;;;5014450;28;20054;-80
2022/07/12 01:27:12;;;;;;;4.60;1.70;;;;;;;;;;5024693;28;20058;-80
2022/07/12 01:29:38;;;;;;;7.85;1.73;;;;;;;;;;5029784;28;20168;-79
2022/07/12 01:34:51;;;;;;;4.38;1.58;;;;;;;;;;5034803;28;20052;-79
2022/07/12 01:37:17;;;;;;;1.60;1.50;;;;;;;;;;5026607;28;20097;-80
2022/07/12 01:39:45;;;;;;;1.92;1.60;;;;;;;;;;5023549;28;20041;-79
2022/07/12 01:42:11;;;;;;;1.58;1.45;;;;;;;;;;5020912;28;20011;-80
2022/07/12 01:44:36;;;;;;;1.83;1.50;;;;;;;;;;5022927;28;20034;-79
2022/07/12 01:47:02;;;;;;;1.60;1.50;;;;;;;;;;4980941;28;20505;-79
2022/07/12 01:49:28;;;;;;;1.60;1.50;;;;;;;;;;5009062;28;20026;-80
2022/07/12 01:51:57;;;;;;;1.60;1.20;;;;;;;;;;4997133;28;20030;-80
2022/07/12 01:54:26;;;;;;;1.58;1.48;;;;;;;;;;5002850;28;20396;-80
2022/07/12 01:56:52;;;;;;;2.17;1.70;;;;;;;;;;5006552;28;20033;-79
2022/07/12 01:59:18;;;;;;;1.77;1.60;;;;;;;;;;5009993;28;20018;-79
2022/07/12 02:01:43;;;;;;;2.55;1.60;;;;;;;;;;5000651;28;20396;-78
2022/07/12 02:04:09;;;;;;;2.05;1.83;;;;;;;;;;4986491;28;20028;-78
2022/07/12 02:06:35;;;;;;;2.20;1.75;;;;;;;;;;4996585;28;20034;-78
2022/07/12 02:09:00;;;;;;;1.63;1.52;;;;;;;;;;5001590;28;20457;-80
2022/07/12 02:11:26;;;;;;;1.73;1.63;;;;;;;;;;5005392;28;20066;-80
2022/07/12 02:13:51;;;;;;;2.25;1.60;;;;;;;;;;4995877;28;20516;-80
2022/07/12 02:16:16;;;;;;;1.80;1.70;;;;;;;;;;5007083;28;20499;-79
2022/07/12 02:18:42;;;;;;;5.20;2.10;;;;;;;;;;4994990;28;20472;-80
2022/07/12 02:21:07;;;;;;;3.55;1.88;;;;;;;;;;5016452;28;20038;-80
2022/07/12 02:23:33;;;;;;;8.18;1.92;;;;;;;;;;5017075;28;20044;-79
2022/07/12 02:25:58;;;;;;;3.33;1.60;;;;;;;;;;5013081;28;20036;-80
2022/07/12 02:28:23;;;;;;;4.85;2.05;;;;;;;;;;5013251;28;20036;-79
2022/07/12 02:30:49;;;;;;;1.83;1.73;;;;;;;;;;5014528;28;20021;-78
2022/07/12 02:33:15;;;;;;;3.58;2.17;;;;;;;;;;5012708;28;20040;-78
2022/07/12 02:35:44;;;;;;;2.03;1.88;;;;;;;;;;5006919;28;20385;-78
2022/07/12 02:38:10;;;;;;;2.10;1.90;;;;;;;;;;5017336;28;20093;-78
2022/07/12 02:40:53;;;;;;;2.13;1.73;;;;;;;;;;5011379;28;20068;-79
2022/07/12 02:43:28;;;;;;;2.40;1.52;;;;;;;;;;5003881;28;20113;-79
2022/07/12 02:45:57;;;;;;;2.00;1.70;;;;;;;;;;5017978;28;20476;-79
2022/07/12 02:48:23;;;;;;;2.15;1.83;;;;;;;;;;5015438;28;20117;-79
2022/07/12 02:50:48;;;;;;;3.03;1.90;;;;;;;;;;5006645;28;20061;-79
2022/07/12 02:53:15;;;;;;;2.53;1.80;;;;;;;;;;5007667;28;20113;-79
2022/07/12 02:55:40;;;;;;;1.70;1.60;;;;;;;;;;5003965;28;20037;-79
2022/07/12 02:58:06;;;;;;;4.90;1.95;;;;;;;;;;5011099;28;20034;-78
2022/07/12 03:00:32;;;;;;;3.30;1.60;;;;;;;;;;5017402;28;20029;-78
2022/07/12 03:02:58;;;;;;;2.53;2.03;;;;;;;;;;5017306;28;20041;-79
2022/07/12 03:05:23;;;;;;;2.95;1.80;;;;;;;;;;5012225;28;20396;-79
2022/07/12 03:07:49;;;;;;;3.95;1.75;;;;;;;;;;4997905;28;20033;-79
2022/07/12 03:10:14;;;;;;;2.25;1.83;;;;;;;;;;5011241;28;20030;-79
2022/07/12 03:12:39;;;;;;;2.03;1.85;;;;;;;;;;5005495;28;20061;-79
2022/07/12 03:15:06;;;;;;;9.80;2.33;;;;;;;;;;5016227;28;20030;-79
2022/07/12 03:17:32;;;;;;;2.20;1.85;;;;;;;;;;4986629;28;20026;-78
2022/07/12 03:19:57;;;;;;;2.20;2.00;;;;;;;;;;5003930;28;20121;-79
2022/07/12 03:22:23;;;;;;;2.20;1.90;;;;;;;;;;5005720;28;20045;-79
2022/07/12 03:24:49;;;;;;;2.17;1.98;;;;;;;;;;5016327;28;20040;-81
2022/07/12 03:27:15;;;;;;;2.50;2.05;;;;;;;;;;5014899;28;20452;-79
2022/07/12 03:29:40;;;;;;;2.33;1.90;;;;;;;;;;5009298;28;20109;-79
2022/07/12 03:32:06;;;;;;;1.83;1.73;;;;;;;;;;5014291;28;20033;-79
2022/07/12 03:34:32;;;;;;;5.78;1.95;;;;;;;;;;5014087;28;20041;-79
2022/07/12 03:36:58;;;;;;;2.28;2.08;;;;;;;;;;5005523;28;20030;-81
2022/07/12 03:39:23;;;;;;;2.28;2.08;;;;;;;;;;5011080;28;20038;-80
2022/07/12 03:41:48;;;;;;;2.83;2.28;;;;;;;;;;5015111;28;20034;-79
2022/07/12 03:44:14;;;;;;;4.05;2.00;;;;;;;;;;5015597;28;20036;-79
2022/07/12 03:46:39;;;;;;;2.85;1.90;;;;;;;;;;5013828;28;20105;-80
2022/07/12 03:49:05;;;;;;;2.72;2.03;;;;;;;;;;5012934;28;20025;-80
2022/07/12 03:51:30;;;;;;;2.25;1.80;;;;;;;;;;4988943;28;20029;-80
2022/07/12 03:53:55;;;;;;;2.38;1.80;;;;;;;;;;5015239;28;20026;-80
2022/07/12 03:59:05;;;;;;;2.40;2.00;;;;;;;;;;5002876;28;20384;-80
2022/07/12 04:01:31;;;;;;;2.42;2.10;;;;;;;;;;4988745;28;20034;-81
2022/07/12 04:03:56;;;;;;;2.22;2.03;;;;;;;;;;5010566;28;20025;-81
2022/07/12 04:06:22;;;;;;;2.28;1.80;;;;;;;;;;4986508;28;20481;-80
2022/07/12 04:08:47;;;;;;;2.15;1.70;;;;;;;;;;5013931;28;20108;-80
2022/07/12 04:11:12;;;;;;;2.25;1.90;;;;;;;;;;5012597;28;20022;-80
2022/07/12 04:13:38;;;;;;;3.60;2.28;;;;;;;;;;5008091;28;20232;-80
2022/07/12 04:16:04;;;;;;;2.47;2.20;;;;;;;;;;5020306;28;20033;-81
2022/07/12 04:18:29;;;;;;;6.20;2.35;;;;;;;;;;5010930;28;20104;-80
2022/07/12 04:20:54;;;;;;;3.22;2.30;;;;;;;;;;5014064;28;20395;-80
2022/07/12 04:23:20;;;;;;;2.95;2.40;;;;;;;;;;5020336;28;20049;-80
2022/07/12 04:25:45;;;;;;;4.65;2.50;;;;;;;;;;5017491;28;20551;-80
2022/07/12 04:28:10;;;;;;;3.00;2.35;;;;;;;;;;5015930;28;20045;-80
2022/07/12 04:30:36;;;;;;;3.70;2.65;;;;;;;;;;5015719;28;20442;-80
2022/07/12 04:33:01;;;;;;;2.60;2.15;;;;;;;;;;5011792;28;20421;-80
2022/07/12 04:35:26;;;;;;;3.55;2.10;;;;;;;;;;4993120;28;20447;-80
2022/07/12 04:38:12;;;;;;;5.82;2.83;;;;;;;;;;5014468;23;20069;-79
2022/07/12 04:40:37;;;;;;;4.28;2.90;;;;;;;;;;4983723;28;20444;-79
2022/07/12 04:43:03;;;;;;;5.28;2.50;;;;;;;;;;5001523;28;20036;-79
2022/07/12 04:46:18;;;;;;;5.85;2.63;;;;;;;;;;5003486;28;20033;-79
2022/07/12 04:48:43;;;;;;;3.70;2.67;;;;;;;;;;4978190;28;20034;-79
2022/07/12 04:51:09;;;;;;;2.45;2.25;;;;;;;;;;4981584;28;20090;-79
2022/07/12 04:53:35;;;;;;;2.75;2.40;;;;;;;;;;4985440;28;20121;-79
2022/07/12 04:56:00;;;;;;;4.78;2.50;;;;;;;;;;4987596;28;20554;-79
2022/07/12 04:58:25;;;;;;;4.68;2.60;;;;;;;;;;4979203;28;20023;-79
2022/07/12 05:00:51;;;;;;;4.75;2.65;;;;;;;;;;4976460;28;20129;-80
2022/07/12 05:03:17;;;;;;;3.53;2.47;;;;;;;;;;4980155;28;20058;-80
2022/07/12 05:05:43;;;;;;;4.10;2.70;;;;;;;;;;4982009;28;21059;-78
2022/07/12 05:08:08;;;;;;;4.53;2.85;;;;;;;;;;4976664;28;20035;-79
2022/07/12 05:10:34;;;;;;;6.60;2.60;;;;;;;;;;4981946;28;20158;-80
2022/07/12 05:12:59;;;;;;;3.75;2.22;;;;;;;;;;4980641;28;20428;-78
2022/07/12 05:15:25;;;;;;;3.05;2.33;;;;;;;;;;4976515;28;20023;-79
2022/07/12 05:17:50;;;;;;;2.85;2.42;;;;;;;;;;4975608;28;20339;-79
2022/07/12 05:20:16;;;;;;;3.13;2.42;;;;;;;;;;4976845;28;20504;-79
2022/07/12 05:22:41;;;;;;;3.28;2.47;;;;;;;;;;4974783;28;20158;-79
2022/07/12 05:25:08;;;;;;;2.72;2.38;;;;;;;;;;4981426;28;20388;-79
2022/07/12 05:27:34;;;;;;;3.75;2.58;;;;;;;;;;4981863;28;20085;-80
2022/07/12 05:29:59;;;;;;;2.85;2.55;;;;;;;;;;4976680;28;20062;-81
2022/07/12 05:32:25;;;;;;;4.18;2.65;;;;;;;;;;4980821;28;20062;-79
2022/07/12 05:34:50;;;;;;;4.53;2.95;;;;;;;;;;4982610;28;20288;-80
2022/07/12 05:37:15;;;;;;;6.57;3.40;;;;;;;;;;4985683;28;20117;-81
2022/07/12 05:39:41;;;;;;;5.47;2.80;;;;;;;;;;4980970;28;20026;-82
2022/07/12 05:42:06;;;;;;;6.88;2.95;;;;;;;;;;4982433;28;20483;-84
2022/07/12 05:44:32;;;;;;;6.43;3.13;;;;;;;;;;4975368;28;20021;-83
2022/07/12 05:46:57;;;;;;;5.72;2.97;;;;;;;;;;5003668;28;20026;-85
2022/07/12 05:49:22;;;;;;;4.20;2.70;;;;;;;;;;4997340;28;20006;-86
2022/07/12 05:54:32;;;;;;;4.45;3.03;;;;;;;;;;4991793;28;20049;-79
2022/07/12 05:56:58;;;;;;;3.50;2.67;;;;;;;;;;4986224;28;20607;-79
2022/07/12 05:59:23;;;;;;;3.70;2.67;;;;;;;;;;4988896;28;20046;-81
2022/07/12 06:01:49;;;;;;;3.72;2.60;;;;;;;;;;4983248;28;20030;-81
2022/07/12 06:04:14;;;;;;;6.63;2.88;;;;;;;;;;4983846;28;20179;-81
2022/07/12 06:06:40;;;;;;;3.33;2.70;;;;;;;;;;4983624;28;20170;-81
2022/07/12 06:09:05;;;;;;;4.40;3.03;;;;;;;;;;4959964;28;20050;-80
2022/07/12 06:11:32;;;;;;;3.83;2.88;;;;;;;;;;4986120;28;20054;-80
2022/07/12 06:13:58;;;;;;;3.28;2.67;;;;;;;;;;4983154;28;20085;-81
2022/07/12 06:16:23;;;;;;;5.70;2.80;;;;;;;;;;4981618;28;20794;-83
2022/07/12 06:18:48;;;;;;;17.17;2.78;;;;;;;;;;4984143;28;20049;-80
2022/07/12 06:21:14;;;;;;;3.95;2.75;;;;;;;;;;4988983;28;20060;-82
2022/07/12 06:23:39;;;;;;;5.13;2.75;;;;;;;;;;4989628;28;20428;-81
2022/07/12 06:26:04;;;;;;;6.47;2.60;;;;;;;;;;4989253;28;20082;-79
2022/07/12 06:28:30;;;;;;;4.60;2.53;;;;;;;;;;4966689;28;20022;-81
2022/07/12 06:30:55;;;;;;;3.50;2.50;;;;;;;;;;4979726;28;20426;-81
2022/07/12 06:33:20;;;;;;;3.78;2.70;;;;;;;;;;4981818;28;20026;-80
2022/07/12 06:35:46;;;;;;;2.70;2.10;;;;;;;;;;4983222;28;20026;-80
2022/07/12 06:38:11;;;;;;;2.72;2.35;;;;;;;;;;4977811;28;20039;-81
2022/07/12 06:40:36;;;;;;;2.30;1.90;;;;;;;;;;4981735;28;20038;-81
2022/07/12 06:43:02;;;;;;;1.80;1.50;;;;;;;;;;4983751;28;20060;-81
2022/07/12 06:45:27;;;;;;;1.58;1.48;;;;;;;;;;4987413;28;20018;-81
2022/07/12 06:47:53;;;;;;;2.05;1.88;;;;;;;;;;4980197;28;20058;-80
2022/07/12 06:50:18;;;;;;;4.13;1.60;;;;;;;;;;4978420;28;20037;-81
2022/07/12 06:52:44;;;;;;;2.67;1.63;;;;;;;;;;4983909;28;20035;-80
2022/07/12 06:55:09;;;;;;;2.03;1.50;;;;;;;;;;4983745;28;20153;-83
2022/07/12 06:57:34;;;;;;;1.88;1.35;;;;;;;;;;4985897;28;20066;-84
2022/07/12 07:00:01;;;;;;;1.15;1.10;;;;;;;;;;4987715;28;20427;-82
2022/07/12 07:02:26;;;;;;;1.00;1.00;;;;;;;;;;4990130;28;20019;-81
2022/07/12 07:04:52;;;;;;;0.80;0.80;;;;;;;;;;4965200;28;20054;-80
2022/07/12 07:07:17;;;;;;;1.75;1.13;;;;;;;;;;4988324;28;20719;-80
2022/07/12 07:09:43;;;;;;;1.73;0.90;;;;;;;;;;4982764;28;21117;-80
2022/07/12 07:12:09;;;;;;;3.72;1.10;;;;;;;;;;4969665;28;20030;-84
2022/07/12 07:14:34;;;;;;;1.13;0.95;;;;;;;;;;4994019;28;20421;-81
2022/07/12 07:16:59;;;;;;;1.15;1.00;;;;;;;;;;4991510;28;20173;-83
2022/07/12 07:19:26;;;;;;;0.68;0.68;;;;;;;;;;4985551;28;20097;-81
2022/07/12 07:21:52;;;;;;;0.95;0.95;;;;;;;;;;4984818;28;20149;-81
2022/07/12 07:24:17;;;;;;;0.75;0.75;;;;;;;;;;4986241;28;20030;-81
2022/07/12 07:26:43;;;;;;;0.50;0.50;;;;;;;;;;4987059;28;20034;-81
2022/07/12 07:31:52;;;;;;;0.75;0.75;;;;;;;;;;4982991;28;20114;-80
2022/07/12 07:34:17;;;;;;;0.65;0.65;;;;;;;;;;4986801;28;20125;-83
2022/07/12 07:36:43;;;;;;;2.58;0.70;;;;;;;;;;4992103;28;20062;-85
2022/07/12 07:39:09;;;;;;;0.90;0.90;;;;;;;;;;4992218;28;20054;-83
2022/07/12 07:41:35;;;;;;;1.10;0.70;;;;;;;;;;4973591;28;20034;-82
2022/07/12 07:44:00;;;;;;;0.93;0.70;;;;;;;;;;4969906;28;20035;-81
2022/07/12 07:46:26;;;;;;;0.60;0.50;;;;;;;;;;4984807;28;20469;-82
2022/07/12 07:48:51;;;;;;;0.38;0.38;;;;;;;;;;4980872;28;20034;-80
2022/07/12 07:51:16;;;;;;;0.88;0.70;;;;;;;;;;4985740;28;20038;-83
2022/07/12 07:53:42;;;;;;;3.67;0.75;;;;;;;;;;4968157;28;20109;-81
2022/07/12 07:56:07;;;;;;;1.95;0.88;;;;;;;;;;4983471;28;20018;-81
2022/07/12 07:58:33;;;;;;;0.60;0.60;;;;;;;;;;4979063;28;20050;-81
2022/07/12 08:00:58;;;;;;;1.95;0.90;;;;;;;;;;4988255;28;20413;-82
2022/07/12 08:03:25;;;;;;;1.45;0.70;;;;;;;;;;4980131;28;20071;-83
2022/07/12 08:05:50;;;;;;;1.60;0.63;;;;;;;;;;4982800;28;20158;-85
2022/07/12 08:08:17;;;;;;;0.60;0.60;;;;;;;;;;4974942;28;20144;-83
2022/07/12 08:10:43;;;;;;;0.80;0.80;;;;;;;;;;4960200;28;20035;-85
2022/07/12 08:13:08;;;;;;;0.70;0.70;;;;;;;;;;4972836;28;20037;-85
2022/07/12 08:15:34;;;;;;;2.38;0.65;;;;;;;;;;4979933;28;20042;-84
2022/07/12 08:17:59;;;;;;;0.73;0.73;;;;;;;;;;4953958;28;20243;-85
2022/07/12 08:20:25;;;;;;;0.57;0.57;;;;;;;;;;4949608;28;20027;-85
2022/07/12 08:22:50;;;;;;;0.88;0.85;;;;;;;;;;4959204;28;20023;-85
2022/07/12 08:25:15;;;;;;;1.42;0.90;;;;;;;;;;4948154;28;20031;-84
2022/07/12 08:27:41;;;;;;;1.20;0.93;;;;;;;;;;4956801;28;20038;-83
2022/07/12 08:30:07;;;;;;;0.40;0.40;;;;;;;;;;4954316;28;20023;-82
2022/07/12 08:32:33;;;;;;;0.50;0.40;;;;;;;;;;4975493;28;20027;-82
2022/07/12 08:34:58;;;;;;;1.63;0.55;;;;;;;;;;4976099;28;20045;-83
2022/07/12 08:37:24;;;;;;;0.80;0.55;;;;;;;;;;4976868;28;20022;-82
2022/07/12 08:39:49;;;;;;;0.35;0.35;;;;;;;;;;4956948;28;20089;-82
2022/07/12 08:42:16;;;;;;;0.50;0.47;;;;;;;;;;4978128;28;20089;-82
2022/07/12 08:44:53;;;;;;;0.60;0.57;;;;;;;;;;4982679;28;20034;-82
2022/07/12 08:47:19;;;;;;;0.70;0.70;;;;;;;;;;4976814;28;20053;-82
2022/07/12 08:50:17;;;;;;;0.80;0.63;;;;;;;;;;4973809;28;20023;-84
2022/07/12 08:52:50;;;;;;;0.52;0.52;;;;;;;;;;4957415;28;20374;-84
2022/07/12 08:55:23;;;;;;;1.10;0.20;;;;;;;;;;4987272;28;20030;-85
2022/07/12 08:57:50;;;;;;;0.82;0.57;;;;;;;;;;4981764;28;20054;-84
2022/07/12 09:00:15;;;;;;;1.80;0.75;;;;;;;;;;4977336;28;20043;-84
2022/07/12 09:02:50;;;;;;;1.50;0.50;;;;;;;;;;4976895;28;20015;-82
2022/07/12 09:05:17;;;;;;;0.50;0.50;;;;;;;;;;4978341;28;20030;-83
2022/07/12 09:07:43;;;;;;;1.83;0.63;;;;;;;;;;4978016;28;20058;-83
2022/07/12 09:10:10;;;;;;;0.60;0.60;;;;;;;;;;4974047;28;20074;-84
2022/07/12 09:12:36;;;;;;;0.57;0.50;;;;;;;;;;4977991;28;20509;-83
2022/07/12 09:15:12;;;;;;;0.50;0.50;;;;;;;;;;4969218;28;20110;-84
2022/07/12 09:17:37;;;;;;;1.55;0.65;;;;;;;;;;4979336;28;20038;-83
2022/07/12 09:20:03;;;;;;;0.77;0.50;;;;;;;;;;4961792;28;20058;-83
2022/07/12 09:22:29;;;;;;;1.17;0.63;;;;;;;;;;4974325;28;20028;-84
2022/07/12 09:24:54;;;;;;;0.80;0.63;;;;;;;;;;4963996;28;20059;-83
2022/07/12 09:27:26;;;;;;;1.02;0.57;;;;;;;;;;4980828;28;20031;-85
2022/07/12 09:29:54;;;;;;;1.95;0.45;;;;;;;;;;4978051;28;20040;-83
2022/07/12 09:37:48;;;;;;;0.50;0.50;;;;;;;;;;4975271;28;20100;-84
2022/07/12 09:40:14;;;;;;;0.75;0.60;;;;;;;;;;4979875;28;20224;-85
2022/07/12 09:42:40;;;;;;;0.60;0.50;;;;;;;;;;4972006;28;20027;-83
2022/07/12 09:45:13;;;;;;;0.40;0.40;;;;;;;;;;4957151;28;20397;-84
2022/07/12 09:47:39;;;;;;;2.15;0.70;;;;;;;;;;4969769;28;20101;-84
2022/07/12 09:50:11;;;;;;;3.33;0.80;;;;;;;;;;4973987;28;20027;-84
2022/07/12 09:52:42;;;;;;;1.00;0.85;;;;;;;;;;4974836;28;20410;-84
2022/07/12 09:55:09;;;;;;;0.70;0.70;;;;;;;;;;4983657;28;20167;-83
2022/07/12 09:57:39;;;;;;;1.80;0.77;;;;;;;;;;4983160;28;20031;-83
2022/07/12 10:00:08;;;;;;;0.75;0.70;;;;;;;;;;4955173;28;20374;-83
2022/07/12 10:02:35;;;;;;;0.50;0.50;;;;;;;;;;4959046;28;20041;-83
2022/07/12 10:05:04;;;;;;;0.40;0.40;;;;;;;;;;4977942;28;20022;-83
2022/07/12 10:07:31;;;;;;;0.40;0.40;;;;;;;;;;4977238;28;20389;-84
2022/07/12 10:09:57;;;;;;;0.85;0.47;;;;;;;;;;4974370;28;20023;-84
2022/07/12 10:12:23;;;;;;;0.57;0.57;;;;;;;;;;4976655;28;20027;-83
2022/07/12 10:14:55;;;;;;;0.38;0.38;;;;;;;;;;4951067;28;20373;-83
2022/07/12 10:17:24;;;;;;;2.08;0.50;;;;;;;;;;4975874;28;20041;-83
2022/07/12 10:20:15;;;;;;;0.68;0.60;;;;;;;;;;4975251;28;20472;-83
2022/07/12 10:22:41;;;;;;;0.63;0.63;;;;;;;;;;4978053;28;20023;-83
2022/07/12 10:25:33;;;;;;;0.73;0.70;;;;;;;;;;4970408;28;20022;-86
2022/07/12 10:27:59;;;;;;;1.15;0.65;;;;;;;;;;4971003;28;20035;-85
2022/07/12 10:30:25;;;;;;;0.70;0.43;;;;;;;;;;4972572;28;20050;-85
2022/07/12 10:32:56;;;;;;;1.55;0.68;;;;;;;;;;4957643;28;20026;-86
2022/07/12 10:35:22;;;;;;;;;;;;;;;;;;4975526;28;20063;-86
2022/07/12 10:38:12;;;;;;;0.50;0.32;;;;;;;;;;4958425;28;19982;-85
2022/07/12 10:40:39;;;;;;;0.30;0.30;;;;;;;;;;4985266;28;20031;-86
2022/07/12 10:43:04;;;;;;;1.17;0.50;;;;;;;;;;4979763;28;20027;-85
2022/07/12 10:45:41;;;;;;;2.42;0.45;;;;;;;;;;4978243;28;20037;-86
2022/07/12 10:48:12;;;;;;;1.65;0.38;;;;;;;;;;4950638;28;20110;-86
2022/07/12 10:50:41;;;;;;;0.30;0.30;;;;;;;;;;4960324;28;20423;-85
2022/07/12 10:53:19;;;;;;;1.65;0.57;;;;;;;;;;4975688;28;20551;-85
2022/07/12 10:56:03;;;;;;;0.40;0.40;;;;;;;;;;4961180;28;20026;-85
2022/07/12 10:58:42;;;;;;;0.50;0.50;;;;;;;;;;4963636;28;20033;-88
2022/07/12 11:01:09;;;;;;;1.05;0.70;;;;;;;;;;4982546;28;20481;-85
2022/07/12 11:03:39;;;;;;;0.85;0.50;;;;;;;;;;4982594;28;20026;-85
2022/07/12 11:06:05;;;;;;;0.40;0.40;;;;;;;;;;5049088;23;20034;-82
2022/07/12 11:08:31;;;;;;;0.52;0.52;;;;;;;;;;5025711;28;20038;-84
2022/07/12 11:10:57;;;;;;;1.25;0.40;;;;;;;;;;5005900;28;20041;-83
2022/07/12 11:13:25;;;;;;;0.40;0.40;;;;;;;;;;5019390;28;20025;-84
2022/07/12 11:15:57;;;;;;;0.82;0.30;;;;;;;;;;5029404;28;20505;-82
2022/07/12 11:18:30;;;;;;;1.08;0.50;;;;;;;;;;5029102;28;20030;-84
2022/07/12 11:21:00;;;;;;;1.58;0.93;;;;;;;;;;5024099;28;20049;-83
2022/07/12 11:23:26;;;;;;;1.88;1.30;;;;;;;;;;5010734;28;20030;-84
2022/07/12 11:25:55;;;;;;;0.40;0.40;;;;;;;;;;5015513;28;20167;-84
2022/07/12 11:28:21;;;;;;;1.05;0.65;;;;;;;;;;5004190;28;20033;-84
2022/07/12 11:30:53;;;;;;;0.55;0.47;;;;;;;;;;5032376;28;20104;-84
2022/07/12 11:33:24;;;;;;;0.95;0.20;;;;;;;;;;5009038;28;20021;-86
2022/07/12 11:35:51;;;;;;;0.40;0.40;;;;;;;;;;5010074;28;20042;-84
2022/07/12 11:38:24;;;;;;;0.43;0.40;;;;;;;;;;5006176;28;20072;-85
2022/07/12 11:40:56;;;;;;;0.28;0.28;;;;;;;;;;5023738;28;20136;-86
2022/07/12 11:43:21;;;;;;;0.30;0.30;;;;;;;;;;5012998;28;20412;-84
2022/07/12 11:45:46;;;;;;;0.63;0.40;;;;;;;;;;5027551;28;20056;-85
2022/07/12 11:48:13;;;;;;;0.63;0.50;;;;;;;;;;5026450;28;20029;-84
2022/07/12 11:50:42;;;;;;;0.63;0.50;;;;;;;;;;5007051;28;20083;-85
2022/07/12 11:53:18;;;;;;;0.55;0.55;;;;;;;;;;5005951;28;20022;-85
2022/07/12 11:55:45;;;;;;;1.35;0.80;;;;;;;;;;5027890;28;20478;-84
2022/07/12 11:58:11;;;;;;;0.30;0.30;;;;;;;;;;5019472;28;20034;-86
2022/07/12 12:00:38;;;;;;;0.65;0.57;;;;;;;;;;5011187;28;20039;-85
2022/07/12 12:03:03;;;;;;;0.57;0.50;;;;;;;;;;5021911;28;20022;-86
2022/07/12 12:05:29;;;;;;;0.52;0.40;;;;;;;;;;5013530;28;20102;-86
2022/07/12 12:07:54;;;;;;;0.45;0.35;;;;;;;;;;5004853;28;20064;-84
2022/07/12 12:10:26;;;;;;;0.43;0.43;;;;;;;;;;5008765;28;20033;-86
2022/07/12 12:12:57;;;;;;;0.30;0.30;;;;;;;;;;5006900;28;20029;-86
2022/07/12 12:15:24;;;;;;;1.48;0.55;;;;;;;;;;5003969;28;20064;-85
2022/07/12 12:17:50;;;;;;;0.40;0.40;;;;;;;;;;5026594;28;20026;-86
2022/07/12 12:20:18;;;;;;;2.10;0.50;;;;;;;;;;5022806;28;20061;-85
2022/07/12 12:22:53;;;;;;;1.98;0.57;;;;;;;;;;5032813;28;20018;-85
2022/07/12 12:25:19;;;;;;;0.30;0.30;;;;;;;;;;5023290;28;20046;-86
2022/07/12 12:27:48;;;;;;;0.32;0.32;;;;;;;;;;5033254;28;20056;-86
2022/07/12 12:30:14;;;;;;;0.30;0.30;;;;;;;;;;5008921;28;20069;-84
2022/07/12 12:32:48;;;;;;;0.38;0.38;;;;;;;;;;5029014;28;20025;-83
2022/07/12 12:35:19;;;;;;;0.30;0.25;;;;;;;;;;5038057;28;20017;-82
2022/07/12 12:38:02;;;;;;;1.88;1.08;;;;;;;;;;5026534;28;20060;-83
2022/07/12 12:40:30;;;;;;;0.20;0.20;;;;;;;;;;5021279;28;20025;-81
2022/07/12 12:43:12;;;;;;;0.65;0.32;;;;;;;;;;5021174;28;20037;-80
2022/07/12 12:45:55;;;;;;;2.40;0.50;;;;;;;;;;5039463;28;20082;-85
2022/07/12 12:48:28;;;;;;;0.40;0.40;;;;;;;;;;5014958;28;20056;-83
2022/07/12 12:51:02;;;;;;;0.65;0.40;;;;;;;;;;5006284;28;20022;-85
2022/07/12 12:53:28;;;;;;;0.35;0.35;;;;;;;;;;5028729;28;20040;-85
2022/07/12 12:55:55;;;;;;;4.13;0.40;;;;;;;;;;5024108;28;20048;-84
2022/07/12 12:58:23;;;;;;;3.42;0.60;;;;;;;;;;5018823;28;20076;-85
2022/07/12 13:00:50;;;;;;;0.50;0.50;;;;;;;;;;5025129;28;20022;-84
2022/07/12 13:03:17;;;;;;;0.40;0.40;;;;;;;;;;5022205;28;20072;-85
2022/07/12 13:05:43;;;;;;;0.50;0.50;;;;;;;;;;5015758;28;20033;-86
2022/07/12 13:08:11;;;;;;;1.55;0.40;;;;;;;;;;5005547;28;20052;-85
2022/07/12 13:10:38;;;;;;;0.52;0.25;;;;;;;;;;5006598;28;20049;-85
2022/07/12 13:13:05;;;;;;;0.70;0.30;;;;;;;;;;5007325;28;20673;-85
2022/07/12 13:15:31;;;;;;;0.80;0.25;;;;;;;;;;5003109;28;20033;-85
2022/07/12 13:17:57;;;;;;;0.30;0.30;;;;;;;;;;5005263;28;20030;-86
2022/07/12 13:20:24;;;;;;;1.58;0.70;;;;;;;;;;5021410;28;20126;-82
2022/07/12 13:22:50;;;;;;;0.85;0.40;;;;;;;;;;5011606;28;20025;-86
2022/07/12 13:25:15;;;;;;;2.13;0.38;;;;;;;;;;5017699;28;20026;-86
2022/07/12 13:27:42;;;;;;;1.65;0.40;;;;;;;;;;5020044;28;20387;-86
2022/07/12 13:30:10;;;;;;;0.73;0.30;;;;;;;;;;5022433;28;20485;-86
2022/07/12 13:32:36;;;;;;;2.60;0.40;;;;;;;;;;5027757;28;20054;-85
2022/07/12 13:35:03;;;;;;;0.28;0.28;;;;;;;;;;5017640;28;20288;-86
2022/07/12 13:37:28;;;;;;;0.30;0.28;;;;;;;;;;5021412;28;20235;-84
2022/07/12 13:40:11;;;;;;;0.40;0.40;;;;;;;;;;5012956;28;20057;-87
2022/07/12 13:43:00;;;;;;;0.65;0.43;;;;;;;;;;5014375;28;20083;-87
2022/07/12 13:45:25;;;;;;;0.55;0.50;;;;;;;;;;5011641;28;20080;-84
2022/07/12 13:47:52;;;;;;;3.40;0.50;;;;;;;;;;5001502;28;20423;-87
2022/07/12 13:50:20;;;;;;;0.47;0.28;;;;;;;;;;4997608;28;20030;-85
2022/07/12 13:52:47;;;;;;;1.75;0.50;;;;;;;;;;5001694;28;20028;-87
2022/07/12 13:55:15;;;;;;;0.52;0.30;;;;;;;;;;5012943;28;20071;-85
2022/07/12 13:57:40;;;;;;;7.07;0.50;;;;;;;;;;5025629;28;20041;-84
2022/07/12 14:00:14;;;;;;;0.38;0.38;;;;;;;;;;5005202;28;20022;-86
2022/07/12 14:02:43;;;;;;;0.65;0.65;;;;;;;;;;5009249;28;20068;-85
2022/07/12 14:05:10;;;;;;;1.10;0.63;;;;;;;;;;5003707;28;20048;-83
2022/07/12 14:07:36;;;;;;;0.20;0.20;;;;;;;;;;5011847;28;20096;-86
2022/07/12 14:10:03;;;;;;;1.13;0.47;;;;;;;;;;5020427;28;20025;-88
2022/07/12 14:12:28;;;;;;;0.82;0.38;;;;;;;;;;5028194;28;20050;-87
2022/07/12 14:17:42;;;;;;;0.70;0.30;;;;;;;;;;5025028;28;20030;-85
2022/07/12 14:20:08;;;;;;;0.57;0.57;;;;;;;;;;5001465;28;20129;-85
2022/07/12 14:22:34;;;;;;;0.25;0.22;;;;;;;;;;5005946;28;20112;-85
2022/07/12 14:25:00;;;;;;;0.95;0.35;;;;;;;;;;5015762;28;20056;-82
2022/07/12 14:27:26;;;;;;;0.77;0.60;;;;;;;;;;4997145;28;20416;-83
2022/07/12 14:29:51;;;;;;;4.05;0.60;;;;;;;;;;5016344;28;20014;-87
2022/07/12 14:32:17;;;;;;;0.30;0.30;;;;;;;;;;5020607;28;20009;-85
2022/07/12 14:34:42;;;;;;;0.30;0.30;;;;;;;;;;5015012;28;20117;-84
2022/07/12 14:37:08;;;;;;;0.20;0.20;;;;;;;;;;5015250;28;20043;-87
2022/07/12 14:39:34;;;;;;;0.50;0.50;;;;;;;;;;5005622;28;20108;-84
2022/07/12 14:42:00;;;;;;;0.63;0.57;;;;;;;;;;5002882;28;20046;-84
2022/07/12 14:44:26;;;;;;;0.60;0.60;;;;;;;;;;4995761;28;20459;-83
2022/07/12 14:46:54;;;;;;;0.40;0.38;;;;;;;;;;5024657;28;20032;-82
2022/07/12 14:49:21;;;;;;;0.45;0.43;;;;;;;;;;5004931;28;20540;-85
2022/07/12 14:51:47;;;;;;;1.65;0.75;;;;;;;;;;5016490;28;20526;-83
2022/07/12 14:54:12;;;;;;;0.70;0.52;;;;;;;;;;5016974;28;20036;-85
2022/07/12 14:56:38;;;;;;;0.47;0.47;;;;;;;;;;5032786;28;20033;-82
2022/07/12 14:59:03;;;;;;;1.20;0.40;;;;;;;;;;5020115;28;20391;-84
2022/07/12 15:01:29;;;;;;;0.60;0.50;;;;;;;;;;5004252;28;20415;-87
2022/07/12 15:03:54;;;;;;;0.30;0.30;;;;;;;;;;5000275;28;20014;-86